sensor_id;sensor_type;location;lat;lon;timestamp;P1;durP1;ratioP1;P2;durP2;ratioP2
9789;SDS011;4934;50.852;8.098;2023-02-23T00:02:54;35.35;;;16.17;;
9789;SDS011;4934;50.852;8.098;2023-02-23T00:05:23;41.33;;;17.55;;
9789;SDS011;4934;50.852;8.098;2023-02-23T00:07:49;37.17;;;17.17;;
9789;SDS011;4934;50.852;8.098;2023-02-23T00:10:16;35.67;;;17.60;;
9789;SDS011;4934;50.852;8.098;2023-02-23T00:12:43;46.92;;;19.33;;
9789;SDS011;4934;50.852;8.098;2023-02-23T00:15:10;43.97;;;20.42;;
9789;SDS011;4934;50.852;8.098;2023-02-23T00:17:37;43.63;;;20.87;;
9789;SDS011;4934;50.852;8.098;2023-02-23T00:20:05;45.78;;;19.75;;
9789;SDS011;4934;50.852;8.098;2023-02-23T00:22:39;45.67;;;20.65;;
9789;SDS011;4934;50.852;8.098;2023-02-23T00:25:06;44.65;;;19.98;;
9789;SDS011;4934;50.852;8.098;2023-02-23T00:30:00;46.38;;;20.45;;
9789;SDS011;4934;50.852;8.098;2023-02-23T00:32:26;48.03;;;20.40;;
9789;SDS011;4934;50.852;8.098;2023-02-23T00:34:52;47.53;;;22.58;;
9789;SDS011;4934;50.852;8.098;2023-02-23T00:37:18;50.08;;;21.80;;
9789;SDS011;4934;50.852;8.098;2023-02-23T00:39:44;56.22;;;22.55;;
9789;SDS011;4934;50.852;8.098;2023-02-23T00:42:10;47.38;;;21.95;;
9789;SDS011;4934;50.852;8.098;2023-02-23T00:44:37;55.70;;;22.52;;
9789;SDS011;4934;50.852;8.098;2023-02-23T00:47:04;52.42;;;22.55;;
9789;SDS011;4934;50.852;8.098;2023-02-23T00:49:31;52.35;;;21.25;;
9789;SDS011;4934;50.852;8.098;2023-02-23T00:51:57;45.78;;;20.20;;
9789;SDS011;4934;50.852;8.098;2023-02-23T00:54:23;49.75;;;20.40;;
9789;SDS011;4934;50.852;8.098;2023-02-23T00:56:49;43.80;;;19.88;;
9789;SDS011;4934;50.852;8.098;2023-02-23T00:59:15;40.97;;;19.65;;
9789;SDS011;4934;50.852;8.098;2023-02-23T01:01:41;36.72;;;17.73;;
9789;SDS011;4934;50.852;8.098;2023-02-23T01:04:07;39.20;;;18.85;;
9789;SDS011;4934;50.852;8.098;2023-02-23T01:06:34;43.00;;;18.65;;
9789;SDS011;4934;50.852;8.098;2023-02-23T01:11:34;44.10;;;19.40;;
9789;SDS011;4934;50.852;8.098;2023-02-23T01:13:59;45.92;;;19.25;;
9789;SDS011;4934;50.852;8.098;2023-02-23T01:16:27;48.15;;;20.52;;
9789;SDS011;4934;50.852;8.098;2023-02-23T01:21:22;45.67;;;19.40;;
9789;SDS011;4934;50.852;8.098;2023-02-23T01:23:51;43.40;;;19.52;;
9789;SDS011;4934;50.852;8.098;2023-02-23T01:26:21;44.58;;;20.10;;
9789;SDS011;4934;50.852;8.098;2023-02-23T01:28:55;44.70;;;19.33;;
9789;SDS011;4934;50.852;8.098;2023-02-23T01:31:23;45.70;;;19.25;;
9789;SDS011;4934;50.852;8.098;2023-02-23T01:33:56;37.85;;;18.20;;
9789;SDS011;4934;50.852;8.098;2023-02-23T01:36:24;39.85;;;19.00;;
9789;SDS011;4934;50.852;8.098;2023-02-23T01:38:50;49.30;;;22.23;;
9789;SDS011;4934;50.852;8.098;2023-02-23T01:41:20;37.42;;;18.27;;
9789;SDS011;4934;50.852;8.098;2023-02-23T01:46:42;47.58;;;19.85;;
9789;SDS011;4934;50.852;8.098;2023-02-23T01:49:10;39.03;;;18.25;;
9789;SDS011;4934;50.852;8.098;2023-02-23T01:51:41;45.08;;;19.85;;
9789;SDS011;4934;50.852;8.098;2023-02-23T01:56:40;51.25;;;23.20;;
9789;SDS011;4934;50.852;8.098;2023-02-23T01:59:09;42.92;;;20.17;;
9789;SDS011;4934;50.852;8.098;2023-02-23T02:01:39;45.40;;;21.55;;
9789;SDS011;4934;50.852;8.098;2023-02-23T02:04:06;45.67;;;21.10;;
9789;SDS011;4934;50.852;8.098;2023-02-23T02:06:33;53.13;;;22.67;;
9789;SDS011;4934;50.852;8.098;2023-02-23T02:09:06;52.70;;;20.70;;
9789;SDS011;4934;50.852;8.098;2023-02-23T02:11:34;45.13;;;21.15;;
9789;SDS011;4934;50.852;8.098;2023-02-23T02:14:06;42.78;;;18.85;;
9789;SDS011;4934;50.852;8.098;2023-02-23T02:35:16;51.53;;;21.25;;
9789;SDS011;4934;50.852;8.098;2023-02-23T02:38:23;58.40;;;23.25;;
9789;SDS011;4934;50.852;8.098;2023-02-23T02:41:02;56.42;;;24.38;;
9789;SDS011;4934;50.852;8.098;2023-02-23T02:46:45;59.35;;;24.13;;
9789;SDS011;4934;50.852;8.098;2023-02-23T02:49:15;61.67;;;24.35;;
9789;SDS011;4934;50.852;8.098;2023-02-23T02:52:02;57.45;;;25.52;;
9789;SDS011;4934;50.852;8.098;2023-02-23T02:54:50;51.53;;;23.55;;
9789;SDS011;4934;50.852;8.098;2023-02-23T02:57:21;67.78;;;26.88;;
9789;SDS011;4934;50.852;8.098;2023-02-23T02:59:50;81.80;;;33.20;;
9789;SDS011;4934;50.852;8.098;2023-02-23T03:02:35;54.58;;;24.15;;
9789;SDS011;4934;50.852;8.098;2023-02-23T03:05:23;51.50;;;22.70;;
9789;SDS011;4934;50.852;8.098;2023-02-23T03:11:51;51.58;;;20.98;;
9789;SDS011;4934;50.852;8.098;2023-02-23T03:17:45;40.22;;;20.10;;
9789;SDS011;4934;50.852;8.098;2023-02-23T03:33:17;42.97;;;18.38;;
9789;SDS011;4934;50.852;8.098;2023-02-23T03:36:27;43.97;;;19.45;;
9789;SDS011;4934;50.852;8.098;2023-02-23T03:39:18;44.17;;;19.90;;
9789;SDS011;4934;50.852;8.098;2023-02-23T03:42:22;45.60;;;20.58;;
9789;SDS011;4934;50.852;8.098;2023-02-23T03:45:13;45.20;;;21.33;;
9789;SDS011;4934;50.852;8.098;2023-02-23T03:48:02;59.38;;;24.77;;
9789;SDS011;4934;50.852;8.098;2023-02-23T03:50:52;53.13;;;22.57;;
9789;SDS011;4934;50.852;8.098;2023-02-23T03:53:43;50.35;;;22.50;;
9789;SDS011;4934;50.852;8.098;2023-02-23T03:56:29;58.17;;;24.70;;
9789;SDS011;4934;50.852;8.098;2023-02-23T03:59:19;47.25;;;20.27;;
9789;SDS011;4934;50.852;8.098;2023-02-23T04:02:08;45.33;;;20.08;;
9789;SDS011;4934;50.852;8.098;2023-02-23T04:04:55;47.63;;;22.35;;
9789;SDS011;4934;50.852;8.098;2023-02-23T04:07:44;50.20;;;19.55;;
9789;SDS011;4934;50.852;8.098;2023-02-23T04:10:31;53.97;;;23.17;;
9789;SDS011;4934;50.852;8.098;2023-02-23T04:13:19;52.72;;;23.15;;
9789;SDS011;4934;50.852;8.098;2023-02-23T04:18:27;44.13;;;19.58;;
9789;SDS011;4934;50.852;8.098;2023-02-23T04:20:55;45.63;;;20.70;;
9789;SDS011;4934;50.852;8.098;2023-02-23T04:23:22;40.85;;;20.38;;
9789;SDS011;4934;50.852;8.098;2023-02-23T04:25:49;39.33;;;18.98;;
9789;SDS011;4934;50.852;8.098;2023-02-23T04:28:15;45.00;;;19.27;;
9789;SDS011;4934;50.852;8.098;2023-02-23T04:30:41;44.35;;;19.33;;
9789;SDS011;4934;50.852;8.098;2023-02-23T04:33:07;43.25;;;19.45;;
9789;SDS011;4934;50.852;8.098;2023-02-23T04:35:33;40.80;;;18.50;;
9789;SDS011;4934;50.852;8.098;2023-02-23T04:37:59;47.20;;;21.55;;
9789;SDS011;4934;50.852;8.098;2023-02-23T04:40:26;51.38;;;22.90;;
9789;SDS011;4934;50.852;8.098;2023-02-23T04:42:52;50.40;;;22.90;;
9789;SDS011;4934;50.852;8.098;2023-02-23T04:45:18;55.30;;;24.55;;
9789;SDS011;4934;50.852;8.098;2023-02-23T04:47:44;52.60;;;22.48;;
9789;SDS011;4934;50.852;8.098;2023-02-23T04:50:10;49.97;;;21.33;;
9789;SDS011;4934;50.852;8.098;2023-02-23T04:52:36;50.78;;;21.75;;
9789;SDS011;4934;50.852;8.098;2023-02-23T04:55:03;55.53;;;22.55;;
9789;SDS011;4934;50.852;8.098;2023-02-23T04:57:31;43.33;;;20.40;;
9789;SDS011;4934;50.852;8.098;2023-02-23T04:59:57;42.13;;;19.83;;
9789;SDS011;4934;50.852;8.098;2023-02-23T05:02:23;41.80;;;20.58;;
9789;SDS011;4934;50.852;8.098;2023-02-23T05:04:49;55.15;;;22.75;;
9789;SDS011;4934;50.852;8.098;2023-02-23T05:07:15;49.85;;;21.98;;
9789;SDS011;4934;50.852;8.098;2023-02-23T05:09:41;39.97;;;19.08;;
9789;SDS011;4934;50.852;8.098;2023-02-23T05:12:07;44.35;;;20.88;;
9789;SDS011;4934;50.852;8.098;2023-02-23T05:14:32;42.17;;;19.50;;
9789;SDS011;4934;50.852;8.098;2023-02-23T05:16:58;46.35;;;20.52;;
9789;SDS011;4934;50.852;8.098;2023-02-23T05:19:23;41.13;;;17.95;;
9789;SDS011;4934;50.852;8.098;2023-02-23T05:21:49;48.70;;;20.55;;
9789;SDS011;4934;50.852;8.098;2023-02-23T05:24:15;49.00;;;21.88;;
9789;SDS011;4934;50.852;8.098;2023-02-23T05:26:42;47.63;;;22.50;;
9789;SDS011;4934;50.852;8.098;2023-02-23T05:29:09;46.03;;;22.25;;
9789;SDS011;4934;50.852;8.098;2023-02-23T05:31:34;53.17;;;24.33;;
9789;SDS011;4934;50.852;8.098;2023-02-23T05:34:00;49.97;;;20.88;;
9789;SDS011;4934;50.852;8.098;2023-02-23T05:36:25;48.95;;;21.35;;
9789;SDS011;4934;50.852;8.098;2023-02-23T05:38:51;41.78;;;21.95;;
9789;SDS011;4934;50.852;8.098;2023-02-23T05:41:18;45.30;;;21.20;;
9789;SDS011;4934;50.852;8.098;2023-02-23T05:43:45;53.00;;;23.60;;
9789;SDS011;4934;50.852;8.098;2023-02-23T05:46:16;120.45;;;59.25;;
9789;SDS011;4934;50.852;8.098;2023-02-23T05:48:45;97.53;;;47.35;;
9789;SDS011;4934;50.852;8.098;2023-02-23T05:51:11;70.43;;;36.25;;
9789;SDS011;4934;50.852;8.098;2023-02-23T05:53:43;61.20;;;29.70;;
9789;SDS011;4934;50.852;8.098;2023-02-23T05:56:12;58.80;;;26.67;;
9789;SDS011;4934;50.852;8.098;2023-02-23T05:58:44;54.42;;;24.88;;
9789;SDS011;4934;50.852;8.098;2023-02-23T06:01:12;52.30;;;23.60;;
9789;SDS011;4934;50.852;8.098;2023-02-23T06:03:38;51.00;;;22.20;;
9789;SDS011;4934;50.852;8.098;2023-02-23T06:06:04;46.45;;;21.58;;
9789;SDS011;4934;50.852;8.098;2023-02-23T06:08:31;53.25;;;23.70;;
9789;SDS011;4934;50.852;8.098;2023-02-23T06:10:56;45.42;;;19.70;;
9789;SDS011;4934;50.852;8.098;2023-02-23T06:13:22;54.10;;;20.55;;
9789;SDS011;4934;50.852;8.098;2023-02-23T06:15:48;39.13;;;19.38;;
9789;SDS011;4934;50.852;8.098;2023-02-23T06:18:14;49.28;;;21.58;;
9789;SDS011;4934;50.852;8.098;2023-02-23T06:20:41;50.65;;;23.52;;
9789;SDS011;4934;50.852;8.098;2023-02-23T06:23:06;48.58;;;23.15;;
9789;SDS011;4934;50.852;8.098;2023-02-23T06:25:32;52.08;;;23.27;;
9789;SDS011;4934;50.852;8.098;2023-02-23T06:27:57;47.55;;;22.65;;
9789;SDS011;4934;50.852;8.098;2023-02-23T06:30:23;50.63;;;22.05;;
9789;SDS011;4934;50.852;8.098;2023-02-23T06:32:49;46.08;;;21.45;;
9789;SDS011;4934;50.852;8.098;2023-02-23T06:35:14;45.33;;;21.65;;
9789;SDS011;4934;50.852;8.098;2023-02-23T06:37:42;49.35;;;21.05;;
9789;SDS011;4934;50.852;8.098;2023-02-23T06:40:08;44.33;;;21.58;;
9789;SDS011;4934;50.852;8.098;2023-02-23T06:42:34;52.45;;;24.00;;
9789;SDS011;4934;50.852;8.098;2023-02-23T06:45:01;67.75;;;33.00;;
9789;SDS011;4934;50.852;8.098;2023-02-23T06:47:27;70.97;;;30.85;;
9789;SDS011;4934;50.852;8.098;2023-02-23T06:49:53;68.55;;;31.40;;
9789;SDS011;4934;50.852;8.098;2023-02-23T06:52:18;65.25;;;31.75;;
9789;SDS011;4934;50.852;8.098;2023-02-23T06:54:44;70.47;;;32.22;;
9789;SDS011;4934;50.852;8.098;2023-02-23T06:57:10;61.70;;;29.60;;
9789;SDS011;4934;50.852;8.098;2023-02-23T06:59:36;65.05;;;29.15;;
9789;SDS011;4934;50.852;8.098;2023-02-23T07:02:02;72.07;;;30.90;;
9789;SDS011;4934;50.852;8.098;2023-02-23T07:04:29;64.80;;;27.10;;
9789;SDS011;4934;50.852;8.098;2023-02-23T07:06:55;60.95;;;26.90;;
9789;SDS011;4934;50.852;8.098;2023-02-23T07:09:21;62.08;;;27.10;;
9789;SDS011;4934;50.852;8.098;2023-02-23T07:11:47;57.13;;;25.80;;
9789;SDS011;4934;50.852;8.098;2023-02-23T07:14:12;56.03;;;26.00;;
9789;SDS011;4934;50.852;8.098;2023-02-23T07:16:38;49.38;;;24.48;;
9789;SDS011;4934;50.852;8.098;2023-02-23T07:19:06;56.00;;;26.85;;
9789;SDS011;4934;50.852;8.098;2023-02-23T07:21:32;56.67;;;26.15;;
9789;SDS011;4934;50.852;8.098;2023-02-23T07:23:59;59.67;;;26.40;;
9789;SDS011;4934;50.852;8.098;2023-02-23T07:26:25;59.85;;;27.45;;
9789;SDS011;4934;50.852;8.098;2023-02-23T07:28:50;54.97;;;26.73;;
9789;SDS011;4934;50.852;8.098;2023-02-23T07:31:16;57.88;;;26.70;;
9789;SDS011;4934;50.852;8.098;2023-02-23T07:33:42;78.15;;;33.25;;
9789;SDS011;4934;50.852;8.098;2023-02-23T07:36:08;70.95;;;31.02;;
9789;SDS011;4934;50.852;8.098;2023-02-23T07:38:34;81.95;;;34.38;;
9789;SDS011;4934;50.852;8.098;2023-02-23T07:41:00;74.60;;;33.03;;
9789;SDS011;4934;50.852;8.098;2023-02-23T07:43:26;67.25;;;29.85;;
9789;SDS011;4934;50.852;8.098;2023-02-23T07:46:02;55.80;;;25.13;;
9789;SDS011;4934;50.852;8.098;2023-02-23T07:48:28;58.38;;;26.67;;
9789;SDS011;4934;50.852;8.098;2023-02-23T07:50:55;59.65;;;24.13;;
9789;SDS011;4934;50.852;8.098;2023-02-23T07:53:21;60.30;;;26.65;;
9789;SDS011;4934;50.852;8.098;2023-02-23T07:55:54;68.65;;;28.60;;
9789;SDS011;4934;50.852;8.098;2023-02-23T07:58:23;59.00;;;27.77;;
9789;SDS011;4934;50.852;8.098;2023-02-23T08:00:48;67.65;;;29.65;;
9789;SDS011;4934;50.852;8.098;2023-02-23T08:03:14;65.57;;;29.38;;
9789;SDS011;4934;50.852;8.098;2023-02-23T08:05:40;60.60;;;27.75;;
9789;SDS011;4934;50.852;8.098;2023-02-23T08:08:05;63.33;;;29.85;;
9789;SDS011;4934;50.852;8.098;2023-02-23T08:10:31;77.60;;;33.15;;
9789;SDS011;4934;50.852;8.098;2023-02-23T08:12:57;68.85;;;33.15;;
9789;SDS011;4934;50.852;8.098;2023-02-23T08:15:23;70.53;;;30.73;;
9789;SDS011;4934;50.852;8.098;2023-02-23T08:17:49;77.10;;;33.35;;
9789;SDS011;4934;50.852;8.098;2023-02-23T08:20:15;63.90;;;28.15;;
9789;SDS011;4934;50.852;8.098;2023-02-23T08:22:41;72.95;;;30.88;;
9789;SDS011;4934;50.852;8.098;2023-02-23T08:25:09;73.65;;;32.88;;
9789;SDS011;4934;50.852;8.098;2023-02-23T08:27:35;64.65;;;31.08;;
9789;SDS011;4934;50.852;8.098;2023-02-23T08:30:02;63.47;;;29.20;;
9789;SDS011;4934;50.852;8.098;2023-02-23T08:32:32;63.92;;;31.20;;
9789;SDS011;4934;50.852;8.098;2023-02-23T08:34:59;71.63;;;30.88;;
9789;SDS011;4934;50.852;8.098;2023-02-23T08:37:27;71.82;;;32.30;;
9789;SDS011;4934;50.852;8.098;2023-02-23T08:39:54;76.03;;;32.20;;
9789;SDS011;4934;50.852;8.098;2023-02-23T08:42:20;74.75;;;33.30;;
9789;SDS011;4934;50.852;8.098;2023-02-23T08:44:45;55.70;;;25.52;;
9789;SDS011;4934;50.852;8.098;2023-02-23T08:47:13;50.28;;;22.55;;
9789;SDS011;4934;50.852;8.098;2023-02-23T08:49:53;47.15;;;21.48;;
9789;SDS011;4934;50.852;8.098;2023-02-23T08:52:19;47.72;;;21.20;;
9789;SDS011;4934;50.852;8.098;2023-02-23T08:54:45;51.50;;;22.33;;
9789;SDS011;4934;50.852;8.098;2023-02-23T08:57:58;46.08;;;20.77;;
9789;SDS011;4934;50.852;8.098;2023-02-23T09:04:04;45.15;;;20.75;;
9789;SDS011;4934;50.852;8.098;2023-02-23T09:07:30;62.25;;;24.20;;
9789;SDS011;4934;50.852;8.098;2023-02-23T09:09:56;51.92;;;22.48;;
9789;SDS011;4934;50.852;8.098;2023-02-23T09:12:22;48.00;;;21.73;;
9789;SDS011;4934;50.852;8.098;2023-02-23T09:14:56;43.10;;;20.48;;
9789;SDS011;4934;50.852;8.098;2023-02-23T09:17:24;47.08;;;21.85;;
9789;SDS011;4934;50.852;8.098;2023-02-23T09:19:50;45.03;;;21.33;;
9789;SDS011;4934;50.852;8.098;2023-02-23T09:22:37;46.85;;;21.70;;
9789;SDS011;4934;50.852;8.098;2023-02-23T09:25:12;47.38;;;21.05;;
9789;SDS011;4934;50.852;8.098;2023-02-23T09:27:44;40.10;;;19.98;;
9789;SDS011;4934;50.852;8.098;2023-02-23T09:30:13;37.80;;;18.73;;
9789;SDS011;4934;50.852;8.098;2023-02-23T09:32:51;40.63;;;19.15;;
9789;SDS011;4934;50.852;8.098;2023-02-23T09:35:18;42.35;;;19.95;;
9789;SDS011;4934;50.852;8.098;2023-02-23T09:37:49;40.38;;;19.75;;
9789;SDS011;4934;50.852;8.098;2023-02-23T09:40:18;45.65;;;21.08;;
9789;SDS011;4934;50.852;8.098;2023-02-23T09:45:41;35.10;;;18.45;;
9789;SDS011;4934;50.852;8.098;2023-02-23T09:48:13;35.40;;;17.90;;
9789;SDS011;4934;50.852;8.098;2023-02-23T09:50:43;37.38;;;18.75;;
9789;SDS011;4934;50.852;8.098;2023-02-23T09:55:42;37.03;;;19.08;;
9789;SDS011;4934;50.852;8.098;2023-02-23T09:58:15;35.30;;;16.83;;
9789;SDS011;4934;50.852;8.098;2023-02-23T10:00:58;31.48;;;17.75;;
9789;SDS011;4934;50.852;8.098;2023-02-23T10:03:27;35.45;;;18.25;;
9789;SDS011;4934;50.852;8.098;2023-02-23T10:06:00;33.20;;;17.27;;
9789;SDS011;4934;50.852;8.098;2023-02-23T10:11:26;33.00;;;17.83;;
9789;SDS011;4934;50.852;8.098;2023-02-23T10:19:59;34.53;;;19.88;;
9789;SDS011;4934;50.852;8.098;2023-02-23T10:22:42;32.95;;;18.10;;
9789;SDS011;4934;50.852;8.098;2023-02-23T10:25:20;35.67;;;19.77;;
9789;SDS011;4934;50.852;8.098;2023-02-23T10:27:52;40.78;;;20.00;;
9789;SDS011;4934;50.852;8.098;2023-02-23T10:30:21;34.30;;;18.20;;
9789;SDS011;4934;50.852;8.098;2023-02-23T10:36:11;31.10;;;17.02;;
9789;SDS011;4934;50.852;8.098;2023-02-23T10:39:33;37.50;;;19.50;;
9789;SDS011;4934;50.852;8.098;2023-02-23T10:42:43;38.47;;;19.88;;
9789;SDS011;4934;50.852;8.098;2023-02-23T10:45:15;37.85;;;19.45;;
9789;SDS011;4934;50.852;8.098;2023-02-23T10:48:10;47.97;;;22.38;;
9789;SDS011;4934;50.852;8.098;2023-02-23T10:50:37;48.85;;;23.15;;
9789;SDS011;4934;50.852;8.098;2023-02-23T10:55:46;37.72;;;20.00;;
9789;SDS011;4934;50.852;8.098;2023-02-23T10:58:28;36.88;;;19.75;;
9789;SDS011;4934;50.852;8.098;2023-02-23T11:00:59;38.85;;;18.88;;
9789;SDS011;4934;50.852;8.098;2023-02-23T11:03:28;47.00;;;22.35;;
9789;SDS011;4934;50.852;8.098;2023-02-23T11:05:57;79.70;;;31.73;;
9789;SDS011;4934;50.852;8.098;2023-02-23T11:10:57;38.38;;;20.10;;
9789;SDS011;4934;50.852;8.098;2023-02-23T11:13:28;40.75;;;19.58;;
9789;SDS011;4934;50.852;8.098;2023-02-23T11:15:59;37.38;;;19.95;;
9789;SDS011;4934;50.852;8.098;2023-02-23T11:18:27;39.25;;;21.63;;
9789;SDS011;4934;50.852;8.098;2023-02-23T11:20:53;41.78;;;21.20;;
9789;SDS011;4934;50.852;8.098;2023-02-23T11:23:27;41.55;;;20.65;;
9789;SDS011;4934;50.852;8.098;2023-02-23T11:25:56;42.80;;;22.42;;
9789;SDS011;4934;50.852;8.098;2023-02-23T11:28:26;46.72;;;23.15;;
9789;SDS011;4934;50.852;8.098;2023-02-23T11:33:43;36.47;;;18.98;;
9789;SDS011;4934;50.852;8.098;2023-02-23T11:36:14;40.47;;;20.85;;
9789;SDS011;4934;50.852;8.098;2023-02-23T11:38:46;39.75;;;20.05;;
9789;SDS011;4934;50.852;8.098;2023-02-23T11:41:21;39.38;;;19.73;;
9789;SDS011;4934;50.852;8.098;2023-02-23T11:44:08;40.55;;;20.13;;
9789;SDS011;4934;50.852;8.098;2023-02-23T11:46:45;41.38;;;20.25;;
9789;SDS011;4934;50.852;8.098;2023-02-23T11:49:16;41.17;;;20.25;;
9789;SDS011;4934;50.852;8.098;2023-02-23T11:51:50;46.35;;;21.27;;
9789;SDS011;4934;50.852;8.098;2023-02-23T11:54:36;41.47;;;21.70;;
9789;SDS011;4934;50.852;8.098;2023-02-23T11:58:07;39.75;;;20.65;;
9789;SDS011;4934;50.852;8.098;2023-02-23T12:03:49;45.97;;;20.42;;
9789;SDS011;4934;50.852;8.098;2023-02-23T12:06:37;48.88;;;22.52;;
9789;SDS011;4934;50.852;8.098;2023-02-23T12:11:38;52.30;;;24.00;;
9789;SDS011;4934;50.852;8.098;2023-02-23T12:14:35;47.28;;;22.60;;
9789;SDS011;4934;50.852;8.098;2023-02-23T12:17:25;88.82;;;38.35;;
9789;SDS011;4934;50.852;8.098;2023-02-23T12:22:57;47.38;;;21.98;;
9789;SDS011;4934;50.852;8.098;2023-02-23T12:39:45;51.05;;;22.27;;
9789;SDS011;4934;50.852;8.098;2023-02-23T12:42:19;48.75;;;20.77;;
9789;SDS011;4934;50.852;8.098;2023-02-23T12:45:03;51.45;;;20.23;;
9789;SDS011;4934;50.852;8.098;2023-02-23T12:50:01;49.92;;;20.15;;
9789;SDS011;4934;50.852;8.098;2023-02-23T12:52:37;50.35;;;22.48;;
9789;SDS011;4934;50.852;8.098;2023-02-23T12:55:11;53.90;;;22.35;;
9789;SDS011;4934;50.852;8.098;2023-02-23T13:05:47;66.75;;;26.30;;
9789;SDS011;4934;50.852;8.098;2023-02-23T13:14:10;62.13;;;24.77;;
9789;SDS011;4934;50.852;8.098;2023-02-23T13:16:44;55.70;;;22.50;;
9789;SDS011;4934;50.852;8.098;2023-02-23T13:19:17;60.40;;;22.35;;
9789;SDS011;4934;50.852;8.098;2023-02-23T13:24:35;46.83;;;18.65;;
9789;SDS011;4934;50.852;8.098;2023-02-23T13:33:17;36.60;;;14.13;;
9789;SDS011;4934;50.852;8.098;2023-02-23T13:35:58;28.48;;;11.70;;
9789;SDS011;4934;50.852;8.098;2023-02-23T13:38:33;29.13;;;12.07;;
9789;SDS011;4934;50.852;8.098;2023-02-23T13:41:49;26.63;;;11.07;;
9789;SDS011;4934;50.852;8.098;2023-02-23T13:50:15;26.83;;;11.35;;
9789;SDS011;4934;50.852;8.098;2023-02-23T13:52:43;25.13;;;10.20;;
9789;SDS011;4934;50.852;8.098;2023-02-23T13:58:14;25.40;;;10.95;;
9789;SDS011;4934;50.852;8.098;2023-02-23T14:00:50;24.30;;;11.30;;
9789;SDS011;4934;50.852;8.098;2023-02-23T14:03:59;24.33;;;11.07;;
9789;SDS011;4934;50.852;8.098;2023-02-23T14:06:28;24.10;;;11.35;;
9789;SDS011;4934;50.852;8.098;2023-02-23T14:14:01;26.83;;;11.43;;
9789;SDS011;4934;50.852;8.098;2023-02-23T14:16:28;27.98;;;11.68;;
9789;SDS011;4934;50.852;8.098;2023-02-23T14:21:58;24.60;;;10.98;;
9789;SDS011;4934;50.852;8.098;2023-02-23T14:27:58;25.63;;;11.93;;
9789;SDS011;4934;50.852;8.098;2023-02-23T14:30:28;28.63;;;11.93;;
9789;SDS011;4934;50.852;8.098;2023-02-23T14:33:07;24.95;;;10.43;;
9789;SDS011;4934;50.852;8.098;2023-02-23T14:36:00;23.13;;;10.93;;
9789;SDS011;4934;50.852;8.098;2023-02-23T14:38:29;28.08;;;12.18;;
9789;SDS011;4934;50.852;8.098;2023-02-23T14:44:17;25.92;;;11.73;;
9789;SDS011;4934;50.852;8.098;2023-02-23T14:46:54;29.45;;;13.85;;
9789;SDS011;4934;50.852;8.098;2023-02-23T14:49:25;28.88;;;14.55;;
9789;SDS011;4934;50.852;8.098;2023-02-23T14:51:55;34.13;;;13.85;;
9789;SDS011;4934;50.852;8.098;2023-02-23T14:54:31;27.95;;;14.95;;
9789;SDS011;4934;50.852;8.098;2023-02-23T14:56:59;50.63;;;23.85;;
9789;SDS011;4934;50.852;8.098;2023-02-23T14:59:36;49.13;;;19.87;;
9789;SDS011;4934;50.852;8.098;2023-02-23T15:02:11;42.42;;;18.25;;
9789;SDS011;4934;50.852;8.098;2023-02-23T15:04:44;44.10;;;18.88;;
9789;SDS011;4934;50.852;8.098;2023-02-23T15:07:27;48.15;;;20.63;;
9789;SDS011;4934;50.852;8.098;2023-02-23T15:09:56;40.78;;;18.98;;
9789;SDS011;4934;50.852;8.098;2023-02-23T15:12:33;54.38;;;25.00;;
9789;SDS011;4934;50.852;8.098;2023-02-23T15:15:03;44.78;;;19.67;;
9789;SDS011;4934;50.852;8.098;2023-02-23T15:17:31;53.65;;;23.23;;
9789;SDS011;4934;50.852;8.098;2023-02-23T15:19:59;54.67;;;21.98;;
9789;SDS011;4934;50.852;8.098;2023-02-23T15:22:29;50.03;;;22.55;;
9789;SDS011;4934;50.852;8.098;2023-02-23T15:24:59;51.45;;;22.40;;
9789;SDS011;4934;50.852;8.098;2023-02-23T15:27:36;59.50;;;23.30;;
9789;SDS011;4934;50.852;8.098;2023-02-23T15:30:26;53.28;;;24.38;;
9789;SDS011;4934;50.852;8.098;2023-02-23T15:33:02;58.35;;;24.25;;
9789;SDS011;4934;50.852;8.098;2023-02-23T15:35:29;69.63;;;27.33;;
9789;SDS011;4934;50.852;8.098;2023-02-23T15:38:02;73.47;;;30.45;;
9789;SDS011;4934;50.852;8.098;2023-02-23T15:40:32;71.95;;;29.08;;
9789;SDS011;4934;50.852;8.098;2023-02-23T15:42:58;68.05;;;25.70;;
9789;SDS011;4934;50.852;8.098;2023-02-23T15:45:35;66.88;;;26.42;;
9789;SDS011;4934;50.852;8.098;2023-02-23T15:48:20;65.78;;;26.70;;
9789;SDS011;4934;50.852;8.098;2023-02-23T15:50:49;74.07;;;25.73;;
9789;SDS011;4934;50.852;8.098;2023-02-23T15:53:34;74.53;;;25.58;;
9789;SDS011;4934;50.852;8.098;2023-02-23T15:56:13;78.82;;;27.20;;
9789;SDS011;4934;50.852;8.098;2023-02-23T15:58:47;68.18;;;23.90;;
9789;SDS011;4934;50.852;8.098;2023-02-23T16:01:28;64.85;;;24.02;;
9789;SDS011;4934;50.852;8.098;2023-02-23T16:04:16;75.72;;;27.75;;
9789;SDS011;4934;50.852;8.098;2023-02-23T16:11:48;79.18;;;27.52;;
9789;SDS011;4934;50.852;8.098;2023-02-23T16:14:16;85.97;;;28.70;;
9789;SDS011;4934;50.852;8.098;2023-02-23T16:16:44;89.50;;;28.55;;
9789;SDS011;4934;50.852;8.098;2023-02-23T16:19:14;88.80;;;28.05;;
9789;SDS011;4934;50.852;8.098;2023-02-23T16:21:41;88.90;;;29.58;;
9789;SDS011;4934;50.852;8.098;2023-02-23T16:24:13;93.38;;;29.75;;
9789;SDS011;4934;50.852;8.098;2023-02-23T16:26:47;76.80;;;24.05;;
9789;SDS011;4934;50.852;8.098;2023-02-23T16:29:19;83.00;;;28.50;;
9789;SDS011;4934;50.852;8.098;2023-02-23T16:31:58;84.22;;;28.92;;
9789;SDS011;4934;50.852;8.098;2023-02-23T16:36:58;91.90;;;28.13;;
9789;SDS011;4934;50.852;8.098;2023-02-23T16:39:27;89.25;;;29.90;;
9789;SDS011;4934;50.852;8.098;2023-02-23T16:41:55;89.80;;;29.30;;
9789;SDS011;4934;50.852;8.098;2023-02-23T16:44:22;100.70;;;31.75;;
9789;SDS011;4934;50.852;8.098;2023-02-23T16:49:28;86.10;;;27.65;;
9789;SDS011;4934;50.852;8.098;2023-02-23T16:51:58;79.22;;;26.52;;
9789;SDS011;4934;50.852;8.098;2023-02-23T16:54:24;85.70;;;28.83;;
9789;SDS011;4934;50.852;8.098;2023-02-23T16:56:50;88.40;;;26.95;;
9789;SDS011;4934;50.852;8.098;2023-02-23T16:59:19;83.15;;;28.02;;
9789;SDS011;4934;50.852;8.098;2023-02-23T17:01:46;96.78;;;28.88;;
9789;SDS011;4934;50.852;8.098;2023-02-23T17:04:14;94.53;;;30.58;;
9789;SDS011;4934;50.852;8.098;2023-02-23T17:06:41;83.50;;;28.15;;
9789;SDS011;4934;50.852;8.098;2023-02-23T17:09:08;96.15;;;28.55;;
9789;SDS011;4934;50.852;8.098;2023-02-23T17:11:35;94.88;;;28.55;;
9789;SDS011;4934;50.852;8.098;2023-02-23T17:14:00;89.72;;;30.38;;
9789;SDS011;4934;50.852;8.098;2023-02-23T17:16:26;92.07;;;26.13;;
9789;SDS011;4934;50.852;8.098;2023-02-23T17:18:52;94.03;;;27.40;;
9789;SDS011;4934;50.852;8.098;2023-02-23T17:21:18;96.18;;;27.77;;
9789;SDS011;4934;50.852;8.098;2023-02-23T17:23:49;93.28;;;27.45;;
9789;SDS011;4934;50.852;8.098;2023-02-23T17:26:17;89.72;;;27.85;;
9789;SDS011;4934;50.852;8.098;2023-02-23T17:28:47;105.00;;;27.90;;
9789;SDS011;4934;50.852;8.098;2023-02-23T17:31:14;96.90;;;26.48;;
9789;SDS011;4934;50.852;8.098;2023-02-23T17:33:41;102.82;;;27.05;;
9789;SDS011;4934;50.852;8.098;2023-02-23T17:36:09;100.80;;;28.85;;
9789;SDS011;4934;50.852;8.098;2023-02-23T17:38:36;102.22;;;29.33;;
9789;SDS011;4934;50.852;8.098;2023-02-23T17:41:04;90.70;;;24.83;;
9789;SDS011;4934;50.852;8.098;2023-02-23T17:43:32;102.15;;;29.15;;
9789;SDS011;4934;50.852;8.098;2023-02-23T17:45:58;97.03;;;27.70;;
9789;SDS011;4934;50.852;8.098;2023-02-23T17:48:24;95.45;;;26.38;;
9789;SDS011;4934;50.852;8.098;2023-02-23T17:50:58;96.07;;;26.35;;
9789;SDS011;4934;50.852;8.098;2023-02-23T17:53:28;83.38;;;26.38;;
9789;SDS011;4934;50.852;8.098;2023-02-23T17:55:55;94.55;;;27.45;;
9789;SDS011;4934;50.852;8.098;2023-02-23T17:58:21;87.40;;;25.85;;
9789;SDS011;4934;50.852;8.098;2023-02-23T18:00:48;97.32;;;27.98;;
9789;SDS011;4934;50.852;8.098;2023-02-23T18:03:24;94.93;;;27.17;;
9789;SDS011;4934;50.852;8.098;2023-02-23T18:05:59;90.75;;;27.10;;